Time;durP1;ratioP1;P1;durP2;ratioP2;P2;SDS_P1;SDS_P2;PMS_P1;PMS_P2;Temp;Humidity;BMP_temperature;BMP_pressure;BME280_temperature;BME280_humidity;BME280_pressure;Samples;Min_cycle;Max_cycle;Signal;HPM_P1;HPM_P2
2022/03/17 08:26:05;;;;;;;11.68;9.70;;;;;;;18.31;41.25;101335.91;10038333;25;1336812;-74
2022/03/17 08:31:03;;;;;;;9.48;8.57;;;;;;;18.41;40.96;101348.81;10186671;27;65433;-73
2022/03/17 08:35:55;;;;;;;10.40;9.43;;;;;;;18.45;40.71;101356.22;10170537;27;66181;-73
2022/03/17 08:40:47;;;;;;;9.23;8.27;;;;;;;18.52;40.62;101364.19;10186794;27;66462;-74
2022/03/17 08:50:51;;;;;;;8.48;7.68;;;;;;;18.53;40.61;101382.28;10169155;27;67178;-74
2022/03/17 08:55:43;;;;;;;8.75;7.95;;;;;;;18.58;40.57;101382.34;10185718;27;65640;-74
2022/03/17 09:00:35;;;;;;;8.20;7.45;;;;;;;18.62;40.49;101383.44;10180747;27;65787;-74
2022/03/17 09:05:29;;;;;;;8.02;7.30;;;;;;;18.61;40.52;101390.84;10179188;27;66271;-74
2022/03/17 09:10:25;;;;;;;9.15;7.90;;;;;;;18.63;40.68;101404.31;10173985;27;66515;-74
2022/03/17 09:15:17;;;;;;;7.70;7.10;;;;;;;18.60;40.61;101408.41;10171241;27;65510;-73
2022/03/17 09:20:15;;;;;;;8.55;7.78;;;;;;;18.71;40.61;101416.66;10169092;27;66484;-73
2022/03/17 09:25:09;;;;;;;8.05;7.25;;;;;;;18.69;40.54;101410.59;10174888;27;66322;-74
2022/03/17 09:30:01;;;;;;;8.23;7.32;;;;;;;18.70;40.61;101415.84;10153102;27;65448;-74
2022/03/17 09:34:53;;;;;;;8.63;7.68;;;;;;;18.70;40.75;101417.75;10140648;28;65530;-74
2022/03/17 09:39:46;;;;;;;8.27;7.57;;;;;;;18.75;40.77;101428.75;10137171;28;65545;-73
2022/03/17 09:44:39;;;;;;;8.02;7.22;;;;;;;18.77;40.74;101432.84;10156951;27;66289;-74
2022/03/17 09:49:33;;;;;;;7.90;7.10;;;;;;;18.71;41.07;101441.38;10142074;27;66301;-74
2022/03/17 09:54:25;;;;;;;7.40;6.65;;;;;;;18.77;41.03;101446.59;10140012;27;65824;-73
2022/03/17 09:59:17;;;;;;;8.50;7.68;;;;;;;18.75;41.17;101454.28;10140064;27;65334;-77
2022/03/17 10:04:12;;;;;;;10.95;9.93;;;;;;;18.79;40.51;101454.56;10149058;27;66380;-75
2022/03/17 10:09:04;;;;;;;12.27;11.10;;;;;;;18.68;40.36;101451.00;10163141;27;66424;-77
2022/03/17 10:13:57;;;;;;;16.98;15.27;;;;;;;18.65;39.66;101459.78;10162660;27;65503;-74
2022/03/17 10:18:56;;;;;;;13.43;12.13;;;;;;;18.64;39.91;101477.38;10147644;28;66222;-74
2022/03/17 10:23:50;;;;;;;11.52;10.32;;;;;;;18.67;39.99;101479.59;10154568;28;66058;-75
2022/03/17 10:28:43;;;;;;;15.82;10.65;;;;;;;18.77;40.28;101479.56;10167777;27;66438;-75
2022/03/17 10:33:35;;;;;;;13.75;9.65;;;;;;;18.83;40.47;101489.44;10195364;27;66419;-73
2022/03/17 10:38:27;;;;;;;9.80;8.68;;;;;;;18.86;40.47;101488.91;10193229;27;66385;-70
2022/03/17 10:43:22;;;;;;;9.13;8.27;;;;;;;18.93;40.42;101491.38;10201232;27;66338;-72
2022/03/17 10:48:14;;;;;;;10.27;8.48;;;;;;;19.12;40.14;101503.44;10200821;27;66257;-73
2022/03/17 10:53:06;;;;;;;9.00;8.20;;;;;;;19.11;40.14;101504.56;10179356;27;66333;-75
2022/03/17 10:58:12;;;;;;;9.50;8.18;;;;;;;19.23;40.14;101510.56;10198583;27;66310;-73
2022/03/17 11:03:05;;;;;;;8.60;7.70;;;;;;;19.23;40.08;101516.06;10200596;27;66442;-73
2022/03/17 11:07:58;;;;;;;8.82;8.02;;;;;;;19.11;40.63;101514.72;10189810;27;66318;-72
2022/03/17 11:12:50;;;;;;;9.52;8.32;;;;;;;19.28;40.14;101526.22;10190487;27;66418;-71
2022/03/17 11:17:47;;;;;;;10.40;8.52;;;;;;;19.21;40.18;101525.69;10189843;27;66399;-75
2022/03/17 11:22:40;;;;;;;9.40;8.45;;;;;;;19.05;40.49;101532.31;10193056;27;65821;-74
2022/03/17 11:27:32;;;;;;;10.70;7.95;;;;;;;19.05;40.32;101538.63;10177370;27;65493;-73
2022/03/17 11:32:25;;;;;;;9.38;8.30;;;;;;;18.96;40.40;101549.38;10183006;27;66355;-74
2022/03/17 11:37:26;;;;;;;8.73;7.70;;;;;;;18.99;40.21;101547.97;10167981;27;66379;-74
2022/03/17 11:42:33;;;;;;;8.00;7.20;;;;;;;18.98;40.25;101549.91;10191322;27;65557;-74
2022/03/17 11:47:27;;;;;;;7.75;6.97;;;;;;;18.99;40.36;101561.72;10173860;27;65704;-74
2022/03/17 11:52:19;;;;;;;7.72;6.95;;;;;;;18.93;40.49;101560.91;10187996;27;66455;-74
2022/03/17 11:57:11;;;;;;;7.82;7.13;;;;;;;18.91;40.29;101570.50;10197695;27;65335;-74
2022/03/17 12:02:21;;;;;;;7.82;7.03;;;;;;;18.90;40.45;101575.19;10193153;27;65721;-73
2022/03/17 12:07:14;;;;;;;7.70;7.00;;;;;;;18.87;40.55;101584.00;10190992;27;66193;-73
2022/03/17 12:12:17;;;;;;;8.25;7.45;;;;;;;18.85;40.77;101591.66;10202608;27;65544;-74
2022/03/17 12:17:17;;;;;;;10.05;7.50;;;;;;;18.88;40.63;101599.38;10202239;27;64481;-72
2022/03/17 12:22:22;;;;;;;9.02;7.45;;;;;;;18.91;40.57;101609.81;10201546;27;65673;-73
2022/03/17 12:27:17;;;;;;;8.85;7.40;;;;;;;18.89;40.86;101611.19;10190753;27;65481;-74
2022/03/17 12:32:10;;;;;;;10.13;8.52;;;;;;;18.84;40.88;101613.91;10187401;27;66580;-75
2022/03/17 12:37:02;;;;;;;10.63;7.97;;;;;;;18.84;40.88;101616.66;10185215;27;64237;-74
2022/03/17 12:41:56;;;;;;;12.20;7.90;;;;;;;18.85;40.93;101608.16;10177842;27;66341;-75
2022/03/17 12:46:50;;;;;;;11.00;8.07;;;;;;;18.85;41.00;101619.16;10182441;27;65591;-75
2022/03/17 12:51:42;;;;;;;10.27;8.05;;;;;;;18.83;41.02;101612.25;10198481;27;65564;-73
2022/03/17 12:56:46;;;;;;;10.45;8.00;;;;;;;18.87;40.82;101611.47;10185570;27;65234;-74
2022/03/17 13:01:42;;;;;;;11.13;8.15;;;;;;;18.83;41.03;101618.59;10185155;27;65609;-75
2022/03/17 13:17:02;;;;;;;10.43;8.07;;;;;;;18.84;41.31;101624.91;10187591;27;67302;-67
2022/03/17 13:22:04;;;;;;;8.75;7.03;;;;;;;19.02;41.43;101618.06;10199813;27;65653;-69
2022/03/17 13:26:59;;;;;;;13.35;7.97;;;;;;;19.11;41.41;101625.50;10188396;27;66444;-68
2022/03/17 13:31:51;;;;;;;9.90;7.22;;;;;;;19.20;41.20;101628.50;10188896;27;66367;-68
2022/03/17 13:36:55;;;;;;;9.98;7.22;;;;;;;19.24;41.33;101624.97;10189038;27;65252;-68
2022/03/17 13:41:56;;;;;;;9.23;6.70;;;;;;;19.22;41.15;101642.81;10190743;27;66900;-69
2022/03/17 13:46:48;;;;;;;8.43;6.70;;;;;;;19.20;41.64;101640.34;10182598;27;66464;-68
2022/03/17 13:51:40;;;;;;;8.32;6.28;;;;;;;19.30;41.28;101653.28;10190341;27;66166;-67
2022/03/17 13:56:35;;;;;;;9.10;6.55;;;;;;;19.21;41.38;101653.00;10184309;27;65940;-70
2022/03/17 14:01:27;;;;;;;11.82;6.55;;;;;;;19.24;41.39;101665.38;10192041;27;65638;-70
2022/03/17 14:06:19;;;;;;;8.27;5.72;;;;;;;19.38;41.13;101658.22;10186488;27;66361;-68
2022/03/17 14:11:12;;;;;;;12.25;6.22;;;;;;;19.34;41.32;101662.63;10183291;27;65765;-74
2022/03/17 14:16:09;;;;;;;6.57;5.82;;;;;;;19.26;41.74;101669.50;10198405;27;66209;-73
2022/03/17 14:21:02;;;;;;;9.40;6.05;;;;;;;19.39;41.28;101681.88;10176105;27;66124;-72
2022/03/17 14:25:54;;;;;;;9.23;6.35;;;;;;;19.42;41.34;101677.72;10185635;27;66404;-73
2022/03/17 14:30:46;;;;;;;8.13;5.50;;;;;;;19.48;41.29;101682.19;10183875;27;65586;-72
2022/03/17 14:35:40;;;;;;;8.02;5.20;;;;;;;19.47;41.42;101699.78;10192126;27;66329;-73
2022/03/17 14:40:32;;;;;;;7.03;5.18;;;;;;;19.51;41.24;101700.88;10186615;27;65566;-72
2022/03/17 14:45:24;;;;;;;6.65;5.43;;;;;;;19.48;41.38;101701.44;10197910;27;67093;-72
2022/03/17 14:50:16;;;;;;;10.48;4.93;;;;;;;19.27;41.57;101706.88;10179841;27;65517;-74
2022/03/17 14:55:10;;;;;;;12.88;5.50;;;;;;;19.40;41.48;101716.53;10186687;27;65540;-74
2022/03/17 15:00:03;;;;;;;7.22;4.80;;;;;;;19.43;41.31;101721.47;10182976;27;65714;-74
2022/03/17 15:04:55;;;;;;;12.20;5.40;;;;;;;19.47;41.44;101724.56;10188536;27;66606;-72
2022/03/17 15:09:47;;;;;;;6.47;4.32;;;;;;;19.48;41.25;101732.53;10178788;27;66468;-72
2022/03/17 15:14:40;;;;;;;8.23;5.10;;;;;;;19.47;41.16;101733.63;10206031;27;66547;-74
2022/03/17 15:19:32;;;;;;;9.63;4.50;;;;;;;19.41;41.28;101740.19;10193461;27;66378;-74
2022/03/17 15:24:25;;;;;;;6.72;4.30;;;;;;;19.35;41.45;101744.84;10192492;27;66276;-77
2022/03/17 15:34:28;;;;;;;7.10;4.47;;;;;;;19.44;41.09;101760.81;10177851;27;67234;-73
2022/03/17 15:39:20;;;;;;;6.25;4.43;;;;;;;19.49;41.01;101761.66;10180287;27;66395;-72
2022/03/17 15:44:12;;;;;;;9.30;4.35;;;;;;;19.52;41.19;101776.81;10186466;27;66663;-71
2022/03/17 15:49:04;;;;;;;7.53;4.03;;;;;;;19.53;41.07;101789.47;10196078;27;65933;-72
2022/03/17 15:53:58;;;;;;;7.47;4.63;;;;;;;19.63;41.16;101800.50;10198211;27;65893;-74
2022/03/17 15:58:52;;;;;;;12.07;4.68;;;;;;;18.49;41.90;101806.88;10193914;27;66483;-73
2022/03/17 16:03:44;;;;;;;10.95;4.85;;;;;;;17.98;42.72;101820.25;10182366;27;65703;-76
2022/03/17 16:08:36;;;;;;;9.37;4.60;;;;;;;17.91;43.42;101829.81;10181077;27;66169;-76
2022/03/17 16:18:44;;;;;;;4.93;3.80;;;;;;;17.70;43.40;101839.75;10185009;27;66289;-76
2022/03/17 16:23:55;;;;;;;4.73;3.50;;;;;;;17.71;43.50;101855.94;10175657;27;66160;-75
2022/03/17 16:29:03;;;;;;;5.63;3.47;;;;;;;17.84;43.18;101861.03;10179835;27;66406;-76
2022/03/17 16:33:55;;;;;;;9.43;3.57;;;;;;;17.71;43.06;101863.38;10174142;27;66532;-77
2022/03/17 16:38:47;;;;;;;5.20;3.47;;;;;;;17.47;43.40;101865.53;10180071;27;65795;-76
2022/03/17 16:43:39;;;;;;;6.73;3.40;;;;;;;17.46;43.64;101877.59;10180225;27;65846;-76
2022/03/17 16:48:33;;;;;;;5.13;3.20;;;;;;;17.55;43.79;101888.94;10186504;27;65541;-76
2022/03/17 16:53:25;;;;;;;6.63;3.03;;;;;;;17.58;43.91;101885.66;10191337;27;65550;-77
2022/03/17 16:58:17;;;;;;;4.77;3.40;;;;;;;17.61;43.53;101896.13;10185762;27;65832;-76
2022/03/17 17:03:10;;;;;;;6.67;3.37;;;;;;;17.54;43.75;101903.72;10193650;27;65817;-78
2022/03/17 17:08:15;;;;;;;4.30;3.30;;;;;;;17.46;43.32;101907.75;10179559;27;65163;-80
2022/03/17 17:13:12;;;;;;;5.27;2.93;;;;;;;17.91;42.51;101923.91;10194273;27;66100;-80
2022/03/17 17:18:08;;;;;;;6.37;3.47;;;;;;;17.49;43.07;101931.91;10176025;27;65562;-78
2022/03/17 17:33:25;;;;;;;7.43;3.80;;;;;;;17.11;43.16;101946.50;10198487;27;67217;-77
2022/03/17 17:38:17;;;;;;;4.80;3.60;;;;;;;17.07;43.18;101959.03;10210281;27;65719;-79
2022/03/17 17:43:10;;;;;;;6.20;3.97;;;;;;;17.03;43.58;101969.69;10187328;27;65605;-78
2022/03/17 17:48:05;;;;;;;5.97;4.27;;;;;;;16.96;43.46;101969.03;10196359;27;65186;-79
2022/03/17 17:52:57;;;;;;;6.63;3.23;;;;;;;17.81;42.26;101975.94;10192069;27;66397;-78
2022/03/17 17:57:55;;;;;;;3.07;2.77;;;;;;;18.10;41.74;101982.00;10203371;27;65543;-77
2022/03/17 18:02:47;;;;;;;6.70;3.43;;;;;;;18.08;41.88;101985.00;10185127;27;66422;-75
2022/03/17 18:07:40;;;;;;;5.03;3.23;;;;;;;18.02;41.81;101994.28;10175646;27;65487;-74
2022/03/17 18:12:33;;;;;;;4.83;3.53;;;;;;;17.92;41.70;101998.84;10179309;27;65325;-77
2022/03/17 18:17:28;;;;;;;3.87;2.70;;;;;;;18.02;42.13;101996.19;10183899;27;65987;-76
2022/03/17 18:22:20;;;;;;;5.87;3.40;;;;;;;18.03;41.83;102004.16;10179142;27;65735;-74
2022/03/17 18:27:13;;;;;;;6.43;3.60;;;;;;;17.85;41.73;102007.28;10193485;27;66403;-76
2022/03/17 18:32:06;;;;;;;4.30;3.60;;;;;;;17.83;41.19;102014.94;10178367;27;65900;-76
2022/03/17 18:36:58;;;;;;;8.37;3.37;;;;;;;17.71;41.75;102008.75;10175830;27;66331;-77
2022/03/17 18:41:51;;;;;;;5.17;3.40;;;;;;;17.74;41.65;102028.25;10168941;27;65494;-75
2022/03/17 18:46:44;;;;;;;5.37;3.20;;;;;;;17.62;42.05;102037.69;10173245;27;65892;-77
2022/03/17 18:51:36;;;;;;;7.40;2.83;;;;;;;17.55;42.05;102037.84;10183014;27;65945;-72
2022/03/17 18:56:28;;;;;;;6.93;3.17;;;;;;;17.63;41.98;102053.06;10176547;27;65515;-72
2022/03/17 19:01:20;;;;;;;5.00;2.20;;;;;;;17.64;41.33;102060.19;10175254;27;66278;-72
2022/03/17 19:06:14;;;;;;;5.67;2.43;;;;;;;17.46;41.36;102062.13;10187662;27;65310;-74
2022/03/17 19:11:06;;;;;;;6.13;2.37;;;;;;;17.45;41.43;102070.63;10201628;27;66201;-78
2022/03/17 19:15:58;;;;;;;5.17;2.13;;;;;;;17.26;41.06;102077.47;10187863;27;65512;-80
2022/03/17 19:20:51;;;;;;;5.43;1.80;;;;;;;17.50;41.37;102089.03;10195079;27;65459;-78
2022/03/17 19:25:44;;;;;;;4.93;1.77;;;;;;;17.51;40.64;102101.69;10180100;27;66401;-81
2022/03/17 19:30:36;;;;;;;7.97;1.90;;;;;;;17.59;41.04;102099.34;10174008;27;66242;-77
2022/03/17 19:35:28;;;;;;;6.10;1.50;;;;;;;17.49;41.01;102125.81;10189178;27;65934;-76
2022/03/17 19:40:20;;;;;;;6.00;1.87;;;;;;;17.48;40.90;102127.72;10178218;27;66479;-80
2022/03/17 19:45:14;;;;;;;7.63;2.00;;;;;;;17.30;41.06;102136.19;10179588;27;66315;-77
2022/03/17 19:55:17;;;;;;;6.33;2.13;;;;;;;17.44;40.74;102146.56;10197331;27;66696;-77
2022/03/17 20:00:11;;;;;;;5.47;1.90;;;;;;;17.43;40.88;102150.38;10174263;27;66006;-78
2022/03/17 20:05:05;;;;;;;6.23;1.70;;;;;;;17.32;40.62;102159.53;10175476;28;66411;-79
2022/03/17 20:09:57;;;;;;;6.13;1.60;;;;;;;17.33;40.53;102166.69;10189370;27;66838;-77
2022/03/17 20:14:51;;;;;;;10.00;2.03;;;;;;;17.28;40.44;102174.81;10189722;27;67006;-77
2022/03/17 20:19:44;;;;;;;7.60;1.40;;;;;;;17.33;40.27;102182.31;10171303;27;65700;-76
2022/03/17 20:24:37;;;;;;;6.17;1.57;;;;;;;17.41;40.29;102187.38;10188428;27;65198;-76
2022/03/17 20:29:29;;;;;;;8.37;1.70;;;;;;;17.23;40.57;102185.69;10177782;27;65925;-77
2022/03/17 20:34:21;;;;;;;7.93;1.70;;;;;;;17.09;40.47;102195.31;10167792;27;65728;-76
2022/03/17 20:39:13;;;;;;;6.60;1.80;;;;;;;18.11;40.20;102190.38;10164450;27;65959;-73
2022/03/17 20:44:06;;;;;;;5.97;1.57;;;;;;;18.39;40.24;102199.50;10185370;27;66288;-73
2022/03/17 20:48:59;;;;;;;4.23;1.83;;;;;;;18.52;40.39;102210.13;10175759;27;65493;-73
2022/03/17 20:53:51;;;;;;;2.83;1.40;;;;;;;18.63;40.28;102216.59;10192905;27;66009;-76
2022/03/17 20:58:44;;;;;;;3.47;1.52;;;;;;;18.68;40.57;102219.38;10196716;27;65506;-76
2022/03/17 21:03:37;;;;;;;4.18;1.70;;;;;;;18.74;40.63;102227.47;10192477;27;65314;-75
2022/03/17 21:08:29;;;;;;;5.05;1.27;;;;;;;18.89;40.50;102238.63;10180075;27;65569;-75
2022/03/17 21:13:21;;;;;;;4.07;1.33;;;;;;;18.99;40.22;102238.72;10175142;27;66432;-74
2022/03/17 21:18:13;;;;;;;2.60;1.17;;;;;;;19.01;40.52;102246.72;10179345;27;66193;-74
2022/03/17 21:23:06;;;;;;;5.77;1.30;;;;;;;19.05;40.48;102247.84;10177104;27;66202;-75
2022/03/17 21:27:58;;;;;;;6.20;1.73;;;;;;;19.07;40.77;102264.09;10187783;27;65374;-76
2022/03/17 21:32:54;;;;;;;4.03;1.30;;;;;;;19.15;40.50;102272.72;10188019;27;65517;-75
2022/03/17 21:37:49;;;;;;;6.25;1.23;;;;;;;19.13;40.67;102282.28;10183379;27;64976;-75
2022/03/17 21:42:42;;;;;;;2.92;1.23;;;;;;;19.14;40.68;102275.72;10186681;27;66407;-75
